Time;durP1;ratioP1;P1;durP2;ratioP2;P2;SDS_P1;SDS_P2;PMS_P1;PMS_P2;Temp;Humidity;BMP_temperature;BMP_pressure;BME280_temperature;BME280_humidity;BME280_pressure;Samples;Min_cycle;Max_cycle;Signal;HPM_P1;HPM_P2
2022/01/20 00:01:44;;;;;;;;;;;3.60;99.90;;;;;;5119301;28;19924;-88
2022/01/20 00:04:26;;;;;;;;;;;3.10;99.90;;;;;;5115510;28;19970;-87
2022/01/20 00:07:26;;;;;;;;;;;3.60;99.90;;;;;;5115878;28;19924;-88
2022/01/20 00:25:49;;;;;;;;;;;3.80;99.90;;;;;;5096516;28;20019;-87
2022/01/20 00:26:31;;;;;;;;;;;3.70;99.90;;;;;;5098577;28;20015;-87
2022/01/20 00:29:01;;;;;;;;;;;3.70;99.90;;;;;;5097139;28;19924;-88
2022/01/20 00:31:44;;;;;;;;;;;3.50;99.90;;;;;;5096939;28;19925;-88
2022/01/20 00:34:19;;;;;;;;;;;3.70;99.90;;;;;;5095228;28;19924;-89
2022/01/20 00:39:32;;;;;;;;;;;3.60;99.90;;;;;;5095082;28;19931;-88
2022/01/20 00:41:59;;;;;;;;;;;3.60;99.90;;;;;;5095543;28;19924;-88
2022/01/20 00:44:26;;;;;;;;;;;3.60;99.90;;;;;;5094991;28;20377;-89
2022/01/20 00:46:52;;;;;;;;;;;3.70;99.90;;;;;;5095922;28;19928;-87
2022/01/20 00:49:19;;;;;;;;;;;3.60;99.90;;;;;;5095688;28;19924;-89
2022/01/20 00:51:46;;;;;;;;;;;4.40;99.90;;;;;;5095800;28;20327;-88
2022/01/20 00:54:13;;;;;;;;;;;3.80;99.90;;;;;;5096377;28;20336;-88
2022/01/20 00:56:41;;;;;;;;;;;3.50;99.90;;;;;;5095498;28;20281;-87
2022/01/20 00:59:08;;;;;;;;;;;3.70;99.90;;;;;;5094479;28;19928;-88
2022/01/20 01:01:35;;;;;;;;;;;3.60;99.90;;;;;;5094157;28;19924;-88
2022/01/20 01:04:02;;;;;;;;;;;3.70;99.90;;;;;;5094801;28;19924;-87
2022/01/20 01:06:59;;;;;;;;;;;3.60;99.90;;;;;;5096106;28;19924;-87
2022/01/20 01:09:27;;;;;;;;;;;3.70;99.90;;;;;;5096750;28;20349;-87
2022/01/20 01:11:59;;;;;;;;;;;3.70;99.90;;;;;;5095236;28;20419;-88
2022/01/20 01:14:28;;;;;;;;;;;3.60;99.90;;;;;;5094928;28;19977;-88
2022/01/20 01:20:13;;;;;;;;;;;3.50;99.90;;;;;;5082100;28;19924;-87
2022/01/20 01:22:40;;;;;;;;;;;3.50;99.90;;;;;;5119290;28;19923;-89
2022/01/20 01:25:07;;;;;;;;;;;3.50;99.90;;;;;;5118529;28;19932;-87
2022/01/20 01:27:39;;;;;;;;;;;3.40;99.90;;;;;;5118863;28;19924;-88
2022/01/20 01:30:19;;;;;;;;;;;3.30;99.90;;;;;;5119014;28;20345;-88
2022/01/20 01:32:50;;;;;;;;;;;3.30;99.90;;;;;;5119053;28;19969;-88
2022/01/20 01:35:18;;;;;;;;;;;3.30;99.90;;;;;;5119245;28;19983;-87
2022/01/20 01:40:30;;;;;;;;;;;3.50;99.90;;;;;;5118911;28;19931;-87
2022/01/20 01:43:02;;;;;;;;;;;3.00;99.90;;;;;;5119181;28;19925;-88
2022/01/20 01:45:29;;;;;;;;;;;2.90;99.90;;;;;;5118763;28;19975;-89
2022/01/20 01:47:57;;;;;;;;;;;2.90;99.90;;;;;;5119391;28;19978;-88
2022/01/20 01:50:24;;;;;;;;;;;2.80;99.90;;;;;;5118789;28;19973;-89
2022/01/20 01:52:51;;;;;;;;;;;3.00;99.90;;;;;;5119241;28;20301;-89
2022/01/20 01:55:18;;;;;;;;;;;3.20;99.90;;;;;;5125949;28;19927;-86
2022/01/20 01:57:45;;;;;;;;;;;2.80;99.90;;;;;;5126379;28;19924;-86
2022/01/20 02:00:14;;;;;;;;;;;2.90;99.90;;;;;;5127907;28;19924;-86
2022/01/20 02:02:42;;;;;;;;;;;3.00;99.90;;;;;;5123373;28;19976;-89
2022/01/20 02:05:10;;;;;;;;;;;2.90;99.90;;;;;;5121416;28;19923;-87
2022/01/20 02:08:12;;;;;;;;;;;2.80;99.90;;;;;;5120139;28;19924;-88
2022/01/20 02:18:54;;;;;;;;;;;1.80;99.90;;;;;;5098130;28;19930;-88
2022/01/20 02:21:22;;;;;;;;;;;3.20;99.90;;;;;;5097977;28;19924;-88
2022/01/20 02:23:49;;;;;;;;;;;2.30;99.90;;;;;;5098108;28;19931;-88
2022/01/20 02:26:16;;;;;;;;;;;2.50;99.90;;;;;;5097966;28;20015;-89
2022/01/20 02:28:45;;;;;;;;;;;2.60;99.90;;;;;;5097440;28;19928;-89
2022/01/20 02:31:12;;;;;;;;;;;0.60;99.90;;;;;;5097773;28;19924;-88
2022/01/20 02:33:39;;;;;;;;;;;2.50;99.90;;;;;;5098010;28;20374;-88
2022/01/20 02:36:09;;;;;;;;;;;2.20;99.90;;;;;;5097820;28;19924;-89
2022/01/20 02:38:41;;;;;;;;;;;2.30;99.90;;;;;;5097703;28;20266;-89
2022/01/20 02:46:37;;;;;;;;;;;3.60;99.90;;;;;;5097428;28;19946;-88
2022/01/20 02:49:04;;;;;;;;;;;2.40;99.90;;;;;;5097477;28;19959;-89
2022/01/20 02:51:31;;;;;;;;;;;2.30;99.90;;;;;;5097264;28;19977;-88
2022/01/20 02:53:59;;;;;;;;;;;2.60;99.90;;;;;;5097349;28;19924;-88
2022/01/20 02:56:26;;;;;;;;;;;2.30;99.90;;;;;;5096266;28;19946;-89
2022/01/20 02:58:53;;;;;;;;;;;2.70;99.90;;;;;;5096260;28;19924;-88
2022/01/20 03:01:20;;;;;;;;;;;2.20;99.90;;;;;;5096508;28;19931;-89
2022/01/20 03:03:47;;;;;;;;;;;2.10;99.90;;;;;;5097477;28;19924;-89
2022/01/20 03:06:14;;;;;;;;;;;1.80;99.90;;;;;;5097443;28;19935;-90
2022/01/20 03:08:40;;;;;;;;;;;1.70;99.90;;;;;;5097073;28;19977;-88
2022/01/20 03:11:09;;;;;;;;;;;1.70;99.90;;;;;;5096662;28;20025;-89
2022/01/20 03:13:35;;;;;;;;;;;1.70;99.90;;;;;;5096957;28;20344;-89
2022/01/20 03:16:02;;;;;;;;;;;1.60;99.90;;;;;;5109531;28;19977;-89
2022/01/20 03:18:29;;;;;;;;;;;1.70;99.90;;;;;;5117238;28;19924;-89
2022/01/20 03:20:56;;;;;;;;;;;2.10;99.90;;;;;;5116976;28;19925;-89
2022/01/20 03:23:23;;;;;;;;;;;3.00;99.90;;;;;;5116648;28;19969;-90
2022/01/20 03:25:49;;;;;;;;;;;1.60;99.90;;;;;;5116675;28;19927;-89
2022/01/20 03:28:18;;;;;;;;;;;1.70;99.90;;;;;;5117449;28;20324;-90
2022/01/20 03:30:44;;;;;;;;;;;0.50;99.90;;;;;;5117194;28;19973;-89
2022/01/20 03:33:11;;;;;;;;;;;1.90;99.90;;;;;;5116781;28;19924;-87
2022/01/20 03:35:40;;;;;;;;;;;2.10;99.90;;;;;;5116944;28;19923;-88
2022/01/20 03:38:07;;;;;;;;;;;1.70;99.90;;;;;;5114687;28;19945;-90
2022/01/20 03:40:34;;;;;;;;;;;1.80;99.90;;;;;;5115825;28;19931;-89
2022/01/20 03:43:00;;;;;;;;;;;1.80;99.90;;;;;;5116909;28;19931;-89
2022/01/20 03:45:29;;;;;;;;;;;1.80;99.90;;;;;;5116671;28;19924;-86
2022/01/20 03:48:05;;;;;;;;;;;1.60;99.90;;;;;;5116531;28;19924;-88
2022/01/20 03:53:16;;;;;;;;;;;1.60;99.90;;;;;;5116400;28;19946;-88
2022/01/20 03:55:43;;;;;;;;;;;1.60;99.90;;;;;;5118644;28;20339;-88
2022/01/20 03:58:10;;;;;;;;;;;1.50;99.90;;;;;;5124443;28;19923;-86
2022/01/20 04:00:38;;;;;;;;;;;2.10;99.90;;;;;;5125516;28;20358;-86
2022/01/20 04:03:05;;;;;;;;;;;1.70;99.90;;;;;;5126369;28;19934;-85
2022/01/20 04:05:31;;;;;;;;;;;2.00;99.90;;;;;;5122163;28;19924;-86
2022/01/20 04:07:58;;;;;;;;;;;3.10;99.90;;;;;;5118690;28;19994;-88
2022/01/20 04:10:25;;;;;;;;;;;2.20;99.90;;;;;;5114793;28;20378;-88
2022/01/20 04:12:52;;;;;;;;;;;1.40;99.90;;;;;;5096303;28;19924;-89
2022/01/20 04:15:26;;;;;;;;;;;1.70;99.90;;;;;;5096786;28;19924;-88
2022/01/20 04:17:56;;;;;;;;;;;1.40;99.90;;;;;;5096336;28;19931;-87
2022/01/20 04:20:23;;;;;;;;;;;1.50;99.90;;;;;;5095909;28;20366;-88
2022/01/20 04:22:50;;;;;;;;;;;3.50;99.90;;;;;;5095679;28;19924;-89
2022/01/20 04:25:17;;;;;;;;;;;2.20;99.90;;;;;;5095818;28;20397;-86
2022/01/20 04:27:44;;;;;;;;;;;2.90;99.90;;;;;;5095552;28;19924;-86
2022/01/20 04:30:11;;;;;;;;;;;2.10;99.90;;;;;;5096291;28;19978;-88
2022/01/20 04:32:39;;;;;;;;;;;1.70;99.90;;;;;;5096539;28;19931;-89
2022/01/20 04:35:07;;;;;;;;;;;1.50;99.90;;;;;;5095667;28;20478;-90
2022/01/20 04:37:34;;;;;;;;;;;1.40;99.90;;;;;;5096629;28;19925;-88
2022/01/20 04:40:03;;;;;;;;;;;1.30;99.90;;;;;;5096408;28;19931;-87
2022/01/20 04:42:32;;;;;;;;;;;1.40;99.90;;;;;;5095899;28;19925;-89
2022/01/20 04:45:03;;;;;;;;;;;1.00;99.90;;;;;;5099545;28;19924;-88
2022/01/20 04:47:38;;;;;;;;;;;1.20;99.90;;;;;;5116299;28;20478;-88
2022/01/20 04:58:20;;;;;;;;;;;1.80;99.90;;;;;;5119946;28;19931;-89
2022/01/20 05:00:47;;;;;;;;;;;1.80;99.90;;;;;;5119848;28;19924;-90
2022/01/20 05:03:14;;;;;;;;;;;1.10;99.90;;;;;;5120482;28;19923;-88
2022/01/20 05:05:42;;;;;;;;;;;1.40;99.90;;;;;;5120220;28;19923;-87
2022/01/20 05:08:09;;;;;;;;;;;0.90;99.90;;;;;;5120346;28;19931;-87
2022/01/20 05:10:36;;;;;;;;;;;0.90;99.90;;;;;;5121010;28;20282;-88
2022/01/20 05:13:07;;;;;;;;;;;1.10;99.90;;;;;;5119942;28;19924;-88
2022/01/20 05:15:34;;;;;;;;;;;0.80;99.90;;;;;;5120013;28;20327;-89
2022/01/20 05:18:01;;;;;;;;;;;1.30;99.90;;;;;;5119674;28;19977;-88
2022/01/20 05:20:28;;;;;;;;;;;1.00;99.90;;;;;;5119998;28;19994;-87
2022/01/20 05:22:56;;;;;;;;;;;1.10;99.90;;;;;;5120029;28;19943;-88
2022/01/20 05:25:23;;;;;;;;;;;1.20;99.90;;;;;;5119607;28;20416;-89
2022/01/20 05:27:50;;;;;;;;;;;1.10;99.90;;;;;;5119859;28;19927;-88
2022/01/20 05:30:17;;;;;;;;;;;0.30;99.90;;;;;;5119444;28;19927;-88
2022/01/20 05:32:43;;;;;;;;;;;1.80;99.90;;;;;;5119612;28;19977;-88
2022/01/20 05:35:10;;;;;;;;;;;1.00;99.90;;;;;;5119393;28;19924;-87
2022/01/20 05:37:37;;;;;;;;;;;0.90;99.90;;;;;;5119597;28;20374;-88
2022/01/20 05:40:06;;;;;;;;;;;0.80;99.90;;;;;;5119150;28;19923;-89
2022/01/20 05:42:35;;;;;;;;;;;0.70;99.90;;;;;;5119609;28;19969;-89
2022/01/20 05:45:04;;;;;;;;;;;0.60;99.90;;;;;;5119439;28;19953;-88
2022/01/20 05:47:32;;;;;;;;;;;1.30;99.90;;;;;;5119238;28;19923;-89
2022/01/20 05:49:58;;;;;;;;;;;0.60;99.90;;;;;;5119285;28;19946;-86
2022/01/20 05:52:25;;;;;;;;;;;0.60;99.90;;;;;;5118805;28;19923;-88
2022/01/20 05:54:52;;;;;;;;;;;0.80;99.90;;;;;;5118880;28;19928;-89
2022/01/20 05:57:20;;;;;;;;;;;0.90;99.90;;;;;;5121570;28;19924;-86
2022/01/20 05:59:48;;;;;;;;;;;0.80;99.90;;;;;;5127815;28;19927;-87
2022/01/20 06:02:29;;;;;;;;;;;0.80;99.90;;;;;;5126869;28;19924;-87
2022/01/20 06:04:56;;;;;;;;;;;0.80;99.90;;;;;;5126488;28;19923;-88
2022/01/20 06:07:23;;;;;;;;;;;0.80;99.90;;;;;;5119230;28;19924;-88
2022/01/20 06:09:50;;;;;;;;;;;0.70;99.90;;;;;;5098557;28;19932;-87
2022/01/20 06:12:17;;;;;;;;;;;0.80;99.90;;;;;;5098584;28;19928;-88
2022/01/20 06:14:45;;;;;;;;;;;0.90;99.90;;;;;;5097781;28;19969;-88
2022/01/20 06:17:11;;;;;;;;;;;1.70;99.90;;;;;;5097702;28;19969;-88
2022/01/20 06:19:39;;;;;;;;;;;0.80;99.90;;;;;;5097241;28;19977;-87
2022/01/20 06:22:05;;;;;;;;;;;0.70;99.90;;;;;;5097372;28;20028;-88
2022/01/20 06:24:32;;;;;;;;;;;0.80;99.90;;;;;;5097001;28;19924;-87
2022/01/20 06:26:59;;;;;;;;;;;0.50;99.90;;;;;;5097120;28;19924;-86
2022/01/20 06:29:26;;;;;;;;;;;0.40;99.90;;;;;;5097162;28;20254;-87
2022/01/20 06:31:54;;;;;;;;;;;0.30;99.90;;;;;;5097016;28;19993;-86
2022/01/20 06:34:21;;;;;;;;;;;0.30;99.90;;;;;;5097867;28;19970;-86
2022/01/20 06:36:48;;;;;;;;;;;0.10;99.90;;;;;;5097076;28;19924;-87
2022/01/20 06:39:14;;;;;;;;;;;0.20;99.90;;;;;;5097404;28;19969;-90
2022/01/20 06:41:41;;;;;;;;;;;0.80;99.90;;;;;;5096801;28;19977;-87
2022/01/20 06:44:08;;;;;;;;;;;0.20;99.90;;;;;;5096418;28;19981;-89
2022/01/20 06:46:35;;;;;;;;;;;0.90;99.90;;;;;;5113371;28;19924;-90
2022/01/20 06:49:03;;;;;;;;;;;0.40;99.90;;;;;;5117438;28;19924;-88
2022/01/20 06:51:30;;;;;;;;;;;0.00;99.90;;;;;;5117462;28;19923;-88
2022/01/20 06:53:57;;;;;;;;;;;0.40;99.90;;;;;;5118443;28;19928;-86
2022/01/20 06:56:24;;;;;;;;;;;0.50;99.90;;;;;;5118101;28;19977;-87
2022/01/20 06:58:50;;;;;;;;;;;0.50;99.90;;;;;;5117810;28;19931;-86
2022/01/20 07:01:17;;;;;;;;;;;0.40;99.90;;;;;;5117343;28;20015;-88
2022/01/20 07:03:44;;;;;;;;;;;0.40;99.90;;;;;;5117178;28;19924;-86
2022/01/20 07:06:12;;;;;;;;;;;0.30;99.90;;;;;;5117412;28;19924;-87
2022/01/20 07:08:39;;;;;;;;;;;0.30;99.90;;;;;;5117288;28;19969;-87
2022/01/20 07:11:06;;;;;;;;;;;1.80;99.90;;;;;;5117271;28;19924;-86
2022/01/20 07:13:35;;;;;;;;;;;0.40;99.90;;;;;;5117374;28;19923;-89
2022/01/20 07:16:02;;;;;;;;;;;0.80;99.90;;;;;;5117437;28;19923;-88
2022/01/20 07:18:29;;;;;;;;;;;0.60;99.90;;;;;;5116517;28;19924;-88
2022/01/20 07:20:55;;;;;;;;;;;0.50;99.90;;;;;;5116608;28;19923;-88
2022/01/20 07:23:24;;;;;;;;;;;0.60;99.90;;;;;;5116808;28;19931;-88
2022/01/20 07:25:51;;;;;;;;;;;1.00;99.90;;;;;;5117333;28;19933;-86
2022/01/20 07:28:17;;;;;;;;;;;0.60;99.90;;;;;;5116498;28;19927;-87
2022/01/20 07:30:44;;;;;;;;;;;0.40;99.90;;;;;;5117300;28;20312;-87
2022/01/20 07:33:11;;;;;;;;;;;0.40;99.90;;;;;;5117492;28;20324;-89
2022/01/20 07:35:38;;;;;;;;;;;-0.10;99.90;;;;;;5117287;28;19927;-87
2022/01/20 07:38:06;;;;;;;;;;;0.20;99.90;;;;;;5117860;28;20068;-88
2022/01/20 07:40:34;;;;;;;;;;;0.10;99.90;;;;;;5117163;28;19924;-87
2022/01/20 07:43:01;;;;;;;;;;;-0.60;99.90;;;;;;5117225;28;19924;-88
2022/01/20 07:45:28;;;;;;;;;;;0.20;99.90;;;;;;5116742;28;19924;-86
2022/01/20 07:47:55;;;;;;;;;;;0.30;99.90;;;;;;5116080;28;19924;-86
2022/01/20 07:50:22;;;;;;;;;;;0.00;99.90;;;;;;5117183;28;19946;-87
2022/01/20 07:52:48;;;;;;;;;;;0.00;99.90;;;;;;5117239;28;20406;-87
2022/01/20 07:55:15;;;;;;;;;;;0.10;99.90;;;;;;5116577;28;20347;-88
2022/01/20 07:57:44;;;;;;;;;;;0.20;99.90;;;;;;5116817;28;19923;-87
2022/01/20 08:00:11;;;;;;;;;;;0.40;99.90;;;;;;5118681;28;19976;-88
2022/01/20 08:02:38;;;;;;;;;;;0.40;99.90;;;;;;5116781;28;19967;-85
2022/01/20 08:05:05;;;;;;;;;;;0.40;99.90;;;;;;5125140;28;19923;-85
2022/01/20 08:07:32;;;;;;;;;;;0.40;99.90;;;;;;5110999;28;19924;-88
2022/01/20 08:09:59;;;;;;;;;;;0.40;99.90;;;;;;5106425;28;19924;-85
2022/01/20 08:12:26;;;;;;;;;;;-0.10;99.90;;;;;;5103515;28;20324;-85
2022/01/20 08:14:55;;;;;;;;;;;0.30;99.90;;;;;;5097774;28;19924;-87
2022/01/20 08:17:22;;;;;;;;;;;0.30;99.90;;;;;;5097310;28;19977;-86
2022/01/20 08:19:49;;;;;;;;;;;0.50;99.90;;;;;;5097267;28;19924;-87
2022/01/20 08:22:17;;;;;;;;;;;1.20;99.90;;;;;;5100879;28;19932;-87
2022/01/20 08:24:49;;;;;;;;;;;0.40;99.90;;;;;;5100916;28;19924;-87
2022/01/20 08:27:17;;;;;;;;;;;0.20;99.90;;;;;;5097634;28;19946;-88
2022/01/20 08:29:44;;;;;;;;;;;1.00;99.90;;;;;;5097342;28;19967;-88
2022/01/20 08:32:12;;;;;;;;;;;0.40;99.90;;;;;;5099637;28;20301;-88
2022/01/20 08:34:39;;;;;;;;;;;0.30;99.90;;;;;;5097608;28;19970;-88
2022/01/20 08:37:07;;;;;;;;;;;-0.50;99.90;;;;;;5101061;28;19928;-85
2022/01/20 08:39:44;;;;;;;;;;;0.40;99.90;;;;;;5119359;28;20370;-88
2022/01/20 08:42:11;;;;;;;;;;;0.50;99.90;;;;;;5113364;28;19973;-86
2022/01/20 08:44:39;;;;;;;;;;;0.50;99.90;;;;;;5115213;28;19935;-86
2022/01/20 08:47:16;;;;;;;;;;;0.60;99.90;;;;;;5082861;28;19973;-88
2022/01/20 08:49:49;;;;;;;;;;;0.50;99.90;;;;;;5083636;28;19963;-87
2022/01/20 08:52:16;;;;;;;;;;;2.40;99.90;;;;;;5086509;28;19927;-86
2022/01/20 08:54:45;;;;;;;;;;;2.40;99.90;;;;;;5068048;28;19931;-87
2022/01/20 08:57:12;;;;;;;;;;;2.30;99.90;;;;;;5079375;28;19931;-87
2022/01/20 08:59:42;;;;;;;;;;;2.90;99.90;;;;;;5070569;28;21146;-88
2022/01/20 09:02:12;;;;;;;;;;;2.00;99.90;;;;;;5076880;28;20587;-89
2022/01/20 09:04:39;;;;;;;;;;;0.90;99.90;;;;;;5077685;28;19949;-87
2022/01/20 09:07:07;;;;;;;;;;;1.50;99.90;;;;;;5103653;28;19927;-88
2022/01/20 09:09:40;;;;;;;;;;;0.90;99.90;;;;;;5077298;28;20405;-87
2022/01/20 09:12:18;;;;;;;;;;;1.10;99.90;;;;;;5073048;28;19939;-86
2022/01/20 09:17:31;;;;;;;;;;;1.00;99.90;;;;;;5092992;28;20766;-87
2022/01/20 09:19:59;;;;;;;;;;;1.30;99.90;;;;;;5082015;28;19989;-87
2022/01/20 09:22:29;;;;;;;;;;;1.10;99.90;;;;;;5071338;28;19924;-87
2022/01/20 09:24:55;;;;;;;;;;;1.90;99.90;;;;;;5069414;28;19935;-87
2022/01/20 09:27:22;;;;;;;;;;;2.90;99.90;;;;;;5067939;28;19996;-88
2022/01/20 09:29:49;;;;;;;;;;;1.30;99.90;;;;;;5076841;28;19972;-88
2022/01/20 09:32:17;;;;;;;;;;;1.30;99.90;;;;;;5110856;28;19928;-88
2022/01/20 09:34:44;;;;;;;;;;;1.90;99.90;;;;;;5113296;28;19966;-88
2022/01/20 09:37:10;;;;;;;;;;;1.40;99.90;;;;;;5108308;28;19923;-87
2022/01/20 09:39:40;;;;;;;;;;;2.20;99.90;;;;;;5117261;27;19927;-86
2022/01/20 09:42:07;;;;;;;;;;;1.60;99.90;;;;;;5116679;27;19931;-86
2022/01/20 09:44:34;;;;;;;;;;;0.60;99.90;;;;;;5115546;28;19969;-87
2022/01/20 09:47:01;;;;;;;;;;;1.70;99.90;;;;;;5107579;27;20274;-86
2022/01/20 09:49:28;;;;;;;;;;;2.40;99.90;;;;;;5116819;27;19924;-86
2022/01/20 09:51:55;;;;;;;;;;;1.50;99.90;;;;;;5117150;28;19947;-88
2022/01/20 09:54:22;;;;;;;;;;;2.20;99.90;;;;;;5110626;28;19924;-86
2022/01/20 09:56:50;;;;;;;;;;;3.50;99.90;;;;;;5089204;27;19923;-87
2022/01/20 09:59:17;;;;;;;;;;;2.40;99.90;;;;;;5116311;28;19931;-88
2022/01/20 10:01:48;;;;;;;;;;;2.10;99.90;;;;;;5115646;28;19966;-87
2022/01/20 10:04:18;;;;;;;;;;;2.10;99.90;;;;;;5116521;27;19924;-87
2022/01/20 10:06:51;;;;;;;;;;;2.10;99.90;;;;;;5116178;28;19927;-87
2022/01/20 10:09:26;;;;;;;;;;;2.20;99.90;;;;;;5117466;27;19924;-87
2022/01/20 10:11:56;;;;;;;;;;;3.00;99.90;;;;;;5120382;27;20377;-87
2022/01/20 10:14:23;;;;;;;;;;;3.00;99.90;;;;;;5122587;27;19924;-87
2022/01/20 10:16:50;;;;;;;;;;;2.40;99.90;;;;;;5120449;27;19980;-87
2022/01/20 10:19:23;;;;;;;;;;;2.60;99.90;;;;;;5120175;27;20377;-86
2022/01/20 10:21:50;;;;;;;;;;;2.60;99.90;;;;;;5123648;27;20674;-87
2022/01/20 10:24:17;;;;;;;;;;;2.50;99.90;;;;;;5116211;27;19963;-86
2022/01/20 10:26:44;;;;;;;;;;;3.30;99.90;;;;;;5115278;27;19924;-86
2022/01/20 10:29:14;;;;;;;;;;;2.80;99.90;;;;;;5113323;28;19974;-85
2022/01/20 10:31:42;;;;;;;;;;;2.90;99.90;;;;;;5116085;28;19924;-87
2022/01/20 10:34:19;;;;;;;;;;;2.90;99.90;;;;;;5116687;27;19927;-88
2022/01/20 10:36:50;;;;;;;;;;;2.90;99.90;;;;;;5116666;28;19927;-88
2022/01/20 10:39:17;;;;;;;;;;;2.90;99.90;;;;;;5116479;28;19924;-88
2022/01/20 10:41:44;;;;;;;;;;;3.30;99.90;;;;;;5120441;27;19923;-87
2022/01/20 10:44:14;;;;;;;;;;;2.90;99.90;;;;;;5114649;28;20289;-88
2022/01/20 10:46:45;;;;;;;;;;;2.90;99.90;;;;;;5103941;27;20445;-87
2022/01/20 10:49:12;;;;;;;;;;;2.90;99.90;;;;;;5115221;27;19924;-86
2022/01/20 10:51:39;;;;;;;;;;;1.80;99.90;;;;;;5117655;28;19946;-89
2022/01/20 10:54:08;;;;;;;;;;;2.90;99.90;;;;;;5108445;28;20278;-88
2022/01/20 10:56:49;;;;;;;;;;;3.00;99.90;;;;;;5115673;28;19924;-89
2022/01/20 10:59:18;;;;;;;;;;;3.00;99.90;;;;;;5106146;28;19931;-87
2022/01/20 11:01:46;;;;;;;;;;;3.10;99.90;;;;;;5102069;27;19943;-89
2022/01/20 11:04:13;;;;;;;;;;;3.10;99.90;;;;;;5113232;27;19924;-88
2022/01/20 11:06:40;;;;;;;;;;;3.10;99.90;;;;;;5112372;28;19998;-88
2022/01/20 11:09:08;;;;;;;;;;;3.10;99.90;;;;;;5104228;28;19978;-87
2022/01/20 11:11:37;;;;;;;;;;;3.20;99.90;;;;;;5105263;28;20047;-86
2022/01/20 11:14:04;;;;;;;;;;;3.30;99.90;;;;;;5113030;28;19981;-87
2022/01/20 11:16:37;;;;;;;;;;;3.30;99.90;;;;;;5107960;28;19932;-85
2022/01/20 11:19:14;;;;;;;;;;;3.40;99.90;;;;;;5109402;28;19977;-85
2022/01/20 11:21:42;;;;;;;;;;;3.50;99.90;;;;;;5108756;28;19932;-88
2022/01/20 11:24:16;;;;;;;;;;;3.50;99.90;;;;;;5112555;28;19931;-87
2022/01/20 11:26:48;;;;;;;;;;;4.00;99.90;;;;;;5115191;27;19927;-87
2022/01/20 11:29:16;;;;;;;;;;;3.50;99.90;;;;;;5110886;27;19932;-85
2022/01/20 11:31:44;;;;;;;;;;;3.60;99.90;;;;;;5113465;28;19936;-85
2022/01/20 11:34:15;;;;;;;;;;;3.50;99.90;;;;;;5104642;27;19958;-87
2022/01/20 11:36:42;;;;;;;;;;;3.80;99.90;;;;;;5111519;27;20398;-86
2022/01/20 11:39:09;;;;;;;;;;;4.00;99.90;;;;;;5107078;27;19977;-86
2022/01/20 11:41:39;;;;;;;;;;;4.10;99.90;;;;;;5109256;27;20393;-86
2022/01/20 11:44:10;;;;;;;;;;;4.10;99.90;;;;;;5104754;28;19923;-87
2022/01/20 11:46:38;;;;;;;;;;;4.20;99.90;;;;;;5105629;28;19928;-86
2022/01/20 11:49:08;;;;;;;;;;;4.20;99.90;;;;;;5098586;28;19932;-85
2022/01/20 11:51:49;;;;;;;;;;;4.20;99.90;;;;;;5050224;27;20024;-85
2022/01/20 11:54:17;;;;;;;;;;;4.20;99.90;;;;;;5038011;27;19923;-85
2022/01/20 11:56:45;;;;;;;;;;;4.30;99.90;;;;;;5046049;27;19938;-85
2022/01/20 11:59:14;;;;;;;;;;;4.60;99.90;;;;;;5060574;28;19927;-85
2022/01/20 12:01:48;;;;;;;;;;;4.40;99.90;;;;;;5044069;28;19984;-85
2022/01/20 12:04:17;;;;;;;;;;;4.40;99.90;;;;;;5042717;28;20014;-85
2022/01/20 12:06:47;;;;;;;;;;;4.50;99.90;;;;;;5046004;27;20026;-85
2022/01/20 12:09:15;;;;;;;;;;;4.80;99.90;;;;;;5051775;28;19981;-85
2022/01/20 12:11:42;;;;;;;;;;;4.60;99.90;;;;;;5055938;28;19931;-87
2022/01/20 12:14:09;;;;;;;;;;;4.60;99.90;;;;;;5086709;28;20391;-84
2022/01/20 12:16:37;;;;;;;;;;;4.60;99.90;;;;;;5102749;28;19928;-87
2022/01/20 12:19:08;;;;;;;;;;;4.80;99.90;;;;;;5107143;28;19924;-88
2022/01/20 12:21:37;;;;;;;;;;;4.70;99.90;;;;;;5076119;28;19976;-86
2022/01/20 12:24:04;;;;;;;;;;;5.00;99.90;;;;;;5054331;28;19960;-86
2022/01/20 12:26:33;;;;;;;;;;;4.80;99.90;;;;;;5084926;28;19931;-86
2022/01/20 12:29:01;;;;;;;;;;;4.90;99.90;;;;;;5071735;28;19935;-86
2022/01/20 12:31:28;;;;;;;;;;;4.70;99.90;;;;;;5048443;28;19955;-86
2022/01/20 12:33:55;;;;;;;;;;;4.90;99.90;;;;;;5049690;28;20030;-86
2022/01/20 12:36:24;;;;;;;;;;;4.90;99.90;;;;;;5057438;28;19989;-87
2022/01/20 12:38:54;;;;;;;;;;;3.60;99.90;;;;;;5060046;28;19988;-86
2022/01/20 12:41:22;;;;;;;;;;;5.50;99.90;;;;;;5071583;28;19978;-85
2022/01/20 12:43:51;;;;;;;;;;;5.00;99.90;;;;;;5067295;28;19924;-87
2022/01/20 12:46:20;;;;;;;;;;;4.70;99.90;;;;;;5062123;28;19934;-85
2022/01/20 12:48:58;;;;;;;;;;;5.00;99.90;;;;;;5048047;28;19939;-85
2022/01/20 12:51:35;;;;;;;;;;;5.20;99.90;;;;;;5051818;28;19956;-85
2022/01/20 12:54:08;;;;;;;;;;;5.20;99.90;;;;;;5078807;28;20648;-87
2022/01/20 12:56:36;;;;;;;;;;;5.30;99.90;;;;;;5097962;28;19931;-89
2022/01/20 12:59:04;;;;;;;;;;;5.50;99.90;;;;;;5087568;28;19943;-86
2022/01/20 13:01:40;;;;;;;;;;;5.50;99.90;;;;;;5081759;28;19924;-89
2022/01/20 13:04:09;;;;;;;;;;;5.30;99.90;;;;;;5100634;28;20273;-86
2022/01/20 13:06:37;;;;;;;;;;;5.60;99.90;;;;;;5104324;28;19923;-86
2022/01/20 13:09:06;;;;;;;;;;;4.00;99.90;;;;;;5105664;28;20008;-86
2022/01/20 13:11:39;;;;;;;;;;;4.60;99.90;;;;;;5101694;28;19943;-85
2022/01/20 13:14:07;;;;;;;;;;;5.20;99.90;;;;;;5064729;28;19930;-84
2022/01/20 13:16:34;;;;;;;;;;;5.20;99.90;;;;;;5065571;28;20027;-84
2022/01/20 13:19:01;;;;;;;;;;;5.80;99.90;;;;;;5068235;28;19932;-83
2022/01/20 13:21:39;;;;;;;;;;;4.90;99.90;;;;;;5086264;28;19963;-84
2022/01/20 13:24:07;;;;;;;;;;;5.30;99.90;;;;;;5099679;28;19935;-84
2022/01/20 13:26:45;;;;;;;;;;;7.30;99.90;;;;;;5116387;28;19946;-86
2022/01/20 13:29:11;;;;;;;;;;;5.40;99.90;;;;;;5111331;28;19928;-88
2022/01/20 13:31:38;;;;;;;;;;;5.20;99.90;;;;;;5077450;28;19923;-84
2022/01/20 13:34:09;;;;;;;;;;;5.40;99.90;;;;;;5057133;28;20498;-85
2022/01/20 13:36:40;;;;;;;;;;;5.60;99.90;;;;;;5068982;27;20045;-85
2022/01/20 13:39:07;;;;;;;;;;;5.00;99.90;;;;;;5061738;28;19961;-85
2022/01/20 13:41:36;;;;;;;;;;;5.50;99.90;;;;;;5065573;27;21250;-83
2022/01/20 13:47:01;;;;;;;;;;;5.50;99.90;;;;;;5057811;28;20057;-85
2022/01/20 13:49:28;;;;;;;;;;;3.70;99.90;;;;;;5066351;27;21040;-84
2022/01/20 13:51:59;;;;;;;;;;;6.50;99.90;;;;;;5055722;28;19924;-85
2022/01/20 13:54:35;;;;;;;;;;;5.50;99.90;;;;;;5058940;27;22058;-85
2022/01/20 13:57:04;;;;;;;;;;;5.40;99.90;;;;;;5056532;28;20428;-84
2022/01/20 13:59:32;;;;;;;;;;;5.90;99.90;;;;;;5051092;27;21062;-85
2022/01/20 14:01:59;;;;;;;;;;;5.60;99.90;;;;;;5059572;27;20309;-84
2022/01/20 14:04:27;;;;;;;;;;;5.80;99.90;;;;;;5089655;27;19927;-85
2022/01/20 14:06:53;;;;;;;;;;;5.70;99.90;;;;;;5063919;27;20447;-85
2022/01/20 14:09:20;;;;;;;;;;;5.60;99.90;;;;;;5059079;27;19923;-86
2022/01/20 14:11:48;;;;;;;;;;;5.40;99.90;;;;;;5059162;28;20301;-86
2022/01/20 14:14:16;;;;;;;;;;;5.40;99.90;;;;;;5058231;28;20300;-87
2022/01/20 14:16:45;;;;;;;;;;;6.30;99.90;;;;;;5086628;28;19932;-86
2022/01/20 14:19:14;;;;;;;;;;;5.40;99.90;;;;;;5101929;28;19982;-87
2022/01/20 14:21:43;;;;;;;;;;;5.70;99.90;;;;;;5112114;28;19941;-86
2022/01/20 14:24:10;;;;;;;;;;;5.90;99.90;;;;;;5092405;28;20429;-85
2022/01/20 14:26:43;;;;;;;;;;;5.40;99.90;;;;;;5114310;28;20348;-87
2022/01/20 14:29:10;;;;;;;;;;;5.40;99.90;;;;;;5104001;28;21648;-87
2022/01/20 14:31:38;;;;;;;;;;;5.40;99.90;;;;;;5110878;28;19928;-86
2022/01/20 14:34:05;;;;;;;;;;;5.40;99.90;;;;;;5105244;28;20403;-86
2022/01/20 14:36:32;;;;;;;;;;;5.40;99.90;;;;;;5103497;28;19977;-87
2022/01/20 14:38:59;;;;;;;;;;;5.40;99.90;;;;;;5059173;28;20838;-87
2022/01/20 14:44:22;;;;;;;;;;;5.30;99.90;;;;;;5099699;28;19931;-87
2022/01/20 14:47:22;;;;;;;;;;;5.70;99.90;;;;;;5097616;28;19934;-90
2022/01/20 14:49:50;;;;;;;;;;;5.20;99.90;;;;;;5087349;28;19957;-86
2022/01/20 14:52:17;;;;;;;;;;;5.40;99.90;;;;;;5098648;28;19923;-85
2022/01/20 14:54:46;;;;;;;;;;;5.30;99.90;;;;;;5106704;28;19931;-85
2022/01/20 14:57:13;;;;;;;;;;;5.50;99.90;;;;;;5102537;28;19931;-86
2022/01/20 14:59:40;;;;;;;;;;;5.40;99.90;;;;;;5096104;28;19932;-86
2022/01/20 15:02:07;;;;;;;;;;;5.20;99.90;;;;;;5101367;28;19931;-86
2022/01/20 15:04:33;;;;;;;;;;;5.70;99.90;;;;;;5095325;28;20402;-86
2022/01/20 15:07:02;;;;;;;;;;;5.50;99.90;;;;;;5100944;27;19985;-86
2022/01/20 15:09:29;;;;;;;;;;;5.40;99.90;;;;;;5098831;27;19985;-86
2022/01/20 15:11:56;;;;;;;;;;;5.40;99.90;;;;;;5102599;28;19946;-85
2022/01/20 15:14:23;;;;;;;;;;;5.40;99.90;;;;;;5098506;28;19939;-87
2022/01/20 15:16:51;;;;;;;;;;;5.40;99.90;;;;;;5102562;28;19930;-87
2022/01/20 15:19:18;;;;;;;;;;;5.40;99.90;;;;;;5092075;28;19924;-86
2022/01/20 15:21:45;;;;;;;;;;;5.40;99.90;;;;;;5098391;27;20285;-85
2022/01/20 15:24:14;;;;;;;;;;;5.30;99.90;;;;;;5065900;28;19923;-85
2022/01/20 15:26:42;;;;;;;;;;;5.60;99.90;;;;;;5051112;28;19963;-85
2022/01/20 15:29:09;;;;;;;;;;;5.20;99.90;;;;;;5086052;28;20010;-85
2022/01/20 15:31:36;;;;;;;;;;;4.80;99.90;;;;;;5098484;28;19951;-86
2022/01/20 15:34:03;;;;;;;;;;;5.50;99.90;;;;;;5096490;28;19931;-85
2022/01/20 15:36:32;;;;;;;;;;;5.20;99.90;;;;;;5105900;28;19923;-86